createdAt,value
2018-07-03T07:35:47.346Z,24.01
2018-07-03T07:37:26.468Z,24.84
2018-07-03T07:39:01.528Z,24.38
2018-07-03T07:40:37.624Z,24.14
2018-07-03T07:42:12.536Z,23.95
2018-07-03T07:43:52.486Z,24.62
2018-07-03T07:45:29.375Z,24.97
2018-07-03T07:47:06.769Z,24.37
2018-07-03T07:48:42.284Z,24.77
2018-07-03T07:50:17.618Z,23.96
2018-07-03T07:51:53.494Z,24.26
2018-07-03T07:53:30.550Z,23.71
2018-07-03T07:55:20.502Z,24.26
2018-07-03T07:57:02.315Z,23.40
2018-07-03T07:58:39.346Z,23.82
2018-07-03T08:00:17.251Z,23.41
2018-07-03T08:01:52.391Z,23.10
2018-07-03T08:03:28.534Z,23.62
2018-07-03T08:06:39.884Z,24.95
2018-07-03T08:08:16.077Z,23.61
2018-07-03T08:09:52.963Z,24.57
2018-07-03T08:11:33.882Z,24.16
2018-07-03T08:13:10.947Z,24.30
2018-07-03T08:14:50.259Z,23.53
2018-07-03T08:16:27.911Z,22.93
2018-07-03T08:18:07.328Z,22.42
2018-07-03T08:19:43.702Z,24.25
2018-07-03T08:21:19.731Z,23.95
2018-07-03T08:22:56.763Z,23.93
2018-07-03T08:24:35.037Z,24.41
2018-07-03T08:26:10.823Z,25.37
2018-07-03T08:27:47.223Z,22.09
2018-07-03T08:29:28.658Z,23.55
2018-07-03T08:31:08.935Z,21.81
2018-07-03T08:32:48.415Z,23.33
2018-07-03T08:34:26.987Z,23.43
2018-07-03T08:36:12.025Z,23.89
2018-07-03T08:37:51.785Z,23.62
2018-07-03T08:39:28.684Z,22.29
2018-07-03T08:41:07.363Z,22.70
2018-07-03T08:42:48.881Z,22.34
2018-07-03T08:44:26.562Z,21.62
2018-07-03T08:46:03.383Z,23.40
2018-07-03T08:47:40.602Z,23.17
2018-07-03T08:49:18.891Z,23.53
2018-07-03T08:50:57.059Z,22.99
2018-07-03T08:52:36.146Z,24.17
2018-07-03T08:54:29.444Z,23.62
2018-07-03T08:56:41.260Z,22.60
2018-07-03T08:58:17.126Z,25.38
2018-07-03T08:59:59.645Z,23.16
2018-07-03T09:01:38.683Z,23.62
2018-07-03T09:03:19.816Z,23.18
2018-07-03T09:05:00.390Z,23.16
2018-07-03T09:06:38.529Z,22.71
2018-07-03T09:08:16.881Z,22.05
2018-07-03T09:09:54.913Z,22.84
2018-07-03T09:11:35.262Z,22.43
2018-07-03T09:13:11.285Z,20.89
2018-07-03T09:14:48.211Z,21.95
2018-07-03T09:16:54.735Z,21.54
2018-07-03T09:18:32.384Z,20.97
2018-07-03T09:20:20.451Z,20.71
2018-07-03T09:21:56.732Z,21.16
2018-07-03T09:23:34.188Z,22.31
2018-07-03T09:25:11.214Z,21.31
2018-07-03T09:26:47.311Z,22.60
2018-07-03T09:28:24.160Z,22.17
2018-07-03T09:30:00.487Z,21.67
2018-07-03T09:31:36.528Z,21.14
2018-07-03T09:33:13.152Z,21.41
2018-07-03T09:34:51.467Z,21.34
2018-07-03T09:36:29.007Z,21.99
2018-07-03T09:38:07.674Z,21.61
2018-07-03T09:39:43.584Z,21.90
2018-07-03T09:41:21.683Z,22.42
2018-07-03T09:42:59.306Z,20.43
2018-07-03T09:44:35.755Z,23.11
2018-07-03T09:46:12.182Z,22.61
2018-07-03T09:47:52.532Z,21.72
2018-07-03T09:49:29.702Z,21.83
2018-07-03T09:51:05.536Z,21.40
2018-07-03T09:52:43.253Z,21.26
2018-07-03T09:54:20.656Z,21.75
2018-07-03T09:55:59.546Z,20.52
2018-07-03T09:57:38.885Z,21.55
2018-07-03T09:59:16.799Z,22.13
2018-07-03T10:00:59.331Z,21.24
2018-07-03T10:02:35.743Z,21.33
2018-07-03T10:04:11.982Z,22.19
2018-07-03T10:05:47.883Z,20.93
2018-07-03T10:07:25.707Z,22.25
2018-07-03T10:09:03.346Z,20.30
2018-07-03T10:10:41.171Z,23.48
2018-07-03T10:12:19.240Z,23.52
2018-07-03T10:13:55.631Z,22.26
2018-07-03T10:15:35.436Z,22.18
2018-07-03T10:17:14.132Z,20.98
2018-07-03T10:18:52.765Z,21.17
2018-07-03T10:20:29.271Z,21.96
2018-07-03T10:22:08.466Z,21.31
2018-07-03T10:23:46.843Z,22.17
2018-07-03T10:25:24.105Z,21.61
2018-07-03T10:27:02.045Z,21.22
2018-07-03T10:28:39.367Z,21.73
2018-07-03T10:30:17.472Z,21.26
2018-07-03T10:31:54.406Z,21.58
2018-07-03T10:33:31.263Z,20.06
2018-07-03T10:35:09.132Z,21.68
2018-07-03T10:36:46.389Z,20.41
2018-07-03T10:38:24.419Z,20.15
2018-07-03T10:40:07.195Z,20.37
2018-07-03T10:41:44.916Z,20.11
2018-07-03T10:43:21.808Z,19.70
2018-07-03T10:44:58.174Z,18.38
2018-07-03T10:46:38.148Z,18.78
2018-07-03T10:48:21.937Z,19.74
2018-07-03T10:50:05.617Z,21.12
2018-07-03T10:51:45.678Z,19.82
2018-07-03T10:53:39.364Z,19.33
2018-07-03T10:55:29.845Z,20.68
2018-07-03T10:57:10.322Z,19.41
2018-07-03T10:58:57.494Z,19.63
2018-07-03T11:00:37.504Z,19.25
2018-07-03T11:02:17.742Z,20.95
2018-07-03T11:03:56.553Z,20.13
2018-07-03T11:05:39.859Z,19.60
2018-07-03T11:07:25.293Z,18.28
2018-07-03T11:09:05.866Z,19.32
2018-07-03T11:10:50.197Z,21.55
2018-07-03T11:12:28.295Z,21.40
2018-07-03T11:14:07.601Z,20.90
2018-07-03T11:15:47.864Z,18.64
2018-07-03T11:17:31.078Z,19.76
2018-07-03T11:57:30.302Z,20.20
2018-07-03T11:59:06.657Z,22.58
2018-07-03T12:02:35.982Z,21.51
2018-07-03T12:04:12.804Z,20.66
2018-07-03T12:05:48.897Z,22.19
2018-07-03T12:07:33.240Z,18.96
2018-07-03T12:09:15.456Z,20.06
2018-07-03T12:10:51.622Z,20.41
2018-07-03T12:12:29.013Z,21.14
2018-07-03T12:14:08.517Z,21.19
2018-07-03T12:15:47.705Z,19.99
2018-07-03T12:17:26.486Z,20.69
2018-07-03T12:19:02.853Z,21.79
2018-07-03T12:20:40.691Z,19.53
2018-07-03T12:22:17.413Z,18.93
2018-07-03T12:23:55.486Z,20.07
2018-07-03T12:25:33.244Z,21.76
2018-07-03T12:27:12.789Z,21.29
2018-07-03T12:29:04.796Z,20.30
2018-07-03T12:30:40.707Z,20.77
2018-07-03T12:34:02.362Z,20.72
2018-07-03T12:35:38.561Z,21.54
2018-07-03T12:37:17.493Z,20.64
2018-07-03T12:38:55.084Z,20.88
2018-07-03T12:40:32.628Z,20.23
2018-07-03T12:42:10.273Z,21.75
2018-07-03T12:43:46.299Z,21.34
2018-07-03T12:45:21.366Z,20.75
2018-07-03T12:46:58.275Z,20.49
2018-07-03T12:48:35.814Z,19.54
2018-07-03T12:50:13.674Z,18.57
2018-07-03T12:51:55.882Z,20.03
2018-07-03T12:53:33.360Z,18.75
2018-07-03T12:55:10.995Z,18.96
2018-07-03T12:56:48.371Z,19.93
2018-07-03T12:58:25.037Z,20.49
2018-07-03T13:00:06.892Z,18.72
2018-07-03T13:01:41.994Z,21.04
2018-07-03T13:03:19.064Z,20.90
2018-07-03T13:04:58.589Z,19.79
2018-07-03T13:06:34.684Z,20.34
2018-07-03T13:08:10.770Z,19.62
2018-07-03T13:09:45.774Z,18.92
2018-07-03T13:11:21.674Z,19.98
2018-07-03T13:13:01.340Z,20.55
2018-07-03T13:14:36.564Z,18.51
2018-07-03T13:16:16.021Z,21.12
2018-07-03T13:17:53.590Z,18.90
2018-07-03T13:19:29.078Z,19.93
2018-07-03T13:21:04.444Z,21.56
2018-07-03T13:22:40.522Z,20.20
2018-07-03T13:24:17.367Z,18.94
2018-07-03T13:25:53.330Z,19.97
2018-07-03T13:27:28.450Z,18.07
2018-07-03T13:29:04.605Z,19.07
2018-07-03T13:30:42.550Z,19.19
2018-07-03T13:32:20.490Z,20.91
2018-07-03T13:33:55.635Z,19.32
2018-07-03T13:35:35.219Z,18.75
2018-07-03T13:37:11.771Z,17.60
2018-07-03T13:38:48.334Z,18.72
2018-07-03T13:40:25.949Z,19.63
2018-07-03T13:42:05.901Z,19.90
2018-07-03T13:46:57.355Z,18.90
2018-07-03T13:48:34.420Z,19.50
2018-07-03T13:50:11.324Z,20.46
2018-07-03T13:51:50.272Z,21.14
2018-07-03T13:53:27.253Z,20.55
2018-07-03T13:55:03.414Z,19.71
2018-07-03T13:56:39.215Z,19.01
2018-07-03T13:58:15.904Z,18.72
2018-07-03T13:59:51.420Z,19.05
2018-07-03T14:01:28.421Z,18.22
2018-07-03T14:03:04.779Z,19.48
2018-07-03T14:04:47.074Z,21.11
2018-07-03T14:06:23.870Z,19.38
2018-07-03T14:08:01.636Z,19.79
2018-07-03T14:09:40.567Z,19.62
2018-07-03T14:11:17.563Z,20.28
2018-07-03T14:12:54.648Z,20.42
2018-07-03T14:14:35.548Z,20.48
2018-07-03T14:16:13.350Z,18.79
2018-07-03T14:17:58.637Z,21.87
2018-07-03T14:19:43.423Z,20.99
2018-07-03T14:21:19.600Z,19.14
2018-07-03T14:23:00.919Z,21.22
2018-07-03T14:24:36.247Z,19.77
2018-07-03T14:26:11.228Z,22.54
2018-07-03T14:27:49.185Z,20.62
2018-07-03T14:29:25.624Z,20.77
2018-07-03T14:31:04.572Z,20.32
2018-07-03T14:32:40.661Z,20.53
2018-07-03T14:34:17.662Z,22.01
2018-07-03T14:35:59.119Z,18.96
2018-07-03T14:37:35.474Z,20.35
2018-07-03T14:39:16.504Z,21.72
2018-07-03T14:40:58.547Z,20.23
2018-07-03T14:42:35.711Z,18.81
2018-07-03T14:44:12.948Z,20.06
2018-07-03T14:45:50.897Z,19.25
2018-07-03T14:47:30.806Z,20.01
2018-07-03T14:49:14.796Z,21.55
2018-07-03T14:50:50.967Z,20.35
2018-07-03T14:52:26.294Z,19.89
2018-07-03T14:54:04.466Z,20.83
2018-07-03T14:55:42.433Z,20.17
2018-07-03T14:57:17.897Z,19.45
2018-07-03T14:58:53.846Z,21.14
2018-07-03T15:00:30.143Z,21.33
2018-07-03T15:02:08.862Z,22.42
2018-07-03T15:03:44.968Z,21.25
2018-07-03T15:05:25.080Z,20.45
2018-07-03T15:07:03.308Z,22.04
2018-07-03T15:08:39.199Z,21.49
2018-07-03T15:10:17.732Z,20.67
2018-07-03T15:11:53.873Z,22.08
2018-07-03T15:13:31.903Z,21.57
2018-07-03T15:15:13.070Z,21.57
2018-07-03T15:16:50.027Z,21.47
2018-07-03T15:18:30.217Z,21.37
2018-07-03T15:20:08.242Z,22.08
2018-07-03T15:21:45.341Z,20.85
2018-07-03T15:23:21.259Z,21.49
2018-07-03T15:24:57.033Z,21.79
2018-07-03T15:26:37.403Z,20.54
2018-07-03T15:28:20.230Z,20.96
2018-07-03T15:29:56.936Z,21.08
2018-07-03T15:31:34.079Z,21.28
2018-07-03T15:33:19.767Z,19.74
2018-07-03T15:34:57.243Z,20.06
2018-07-03T15:36:38.923Z,21.05
2018-07-03T15:38:17.323Z,20.06
2018-07-03T15:39:54.887Z,20.41
2018-07-03T15:41:32.821Z,22.07
2018-07-03T15:43:09.406Z,20.24
2018-07-03T15:44:57.876Z,21.06
2018-07-03T15:46:33.535Z,20.82
2018-07-03T15:48:16.334Z,19.76
2018-07-03T15:49:53.149Z,20.90
2018-07-03T15:51:28.529Z,20.95
2018-07-03T15:53:05.193Z,21.71
2018-07-03T15:54:42.578Z,21.33
2018-07-03T15:56:19.067Z,21.54
2018-07-03T15:57:54.261Z,21.03
2018-07-03T15:59:30.792Z,21.10
2018-07-03T16:01:06.209Z,22.27
2018-07-03T16:02:47.372Z,19.73
2018-07-03T16:05:36.158Z,21.55
2018-07-03T16:07:22.939Z,21.96
2018-07-03T16:09:15.762Z,20.38
2018-07-03T16:10:57.084Z,20.65
2018-07-03T16:12:32.767Z,19.36
2018-07-03T16:14:14.105Z,22.44
2018-07-03T16:15:50.284Z,22.59
2018-07-03T16:17:27.507Z,20.96
2018-07-03T16:19:11.242Z,21.62
2018-07-03T16:20:51.719Z,22.60
2018-07-03T16:22:29.204Z,20.62
2018-07-03T16:24:05.336Z,21.21
2018-07-03T16:25:41.420Z,22.06
2018-07-03T16:27:16.555Z,20.34
2018-07-03T16:28:54.975Z,21.82
2018-07-03T16:30:30.356Z,22.52
2018-07-03T16:32:06.739Z,22.06
2018-07-03T16:33:44.284Z,22.73
2018-07-03T16:35:20.828Z,23.27
2018-07-03T16:36:58.547Z,22.92
2018-07-03T16:38:33.732Z,23.73
2018-07-03T16:40:13.557Z,21.89
2018-07-03T16:41:50.241Z,21.20
2018-07-03T16:43:29.979Z,23.63
2018-07-03T16:45:08.301Z,22.24
2018-07-03T16:46:47.851Z,22.89
2018-07-03T16:48:28.192Z,21.83
2018-07-03T16:50:09.027Z,21.46
2018-07-03T16:51:46.752Z,23.17
2018-07-03T16:53:23.149Z,23.47
2018-07-03T16:55:02.563Z,22.78
2018-07-03T16:58:07.712Z,22.10
2018-07-03T16:59:44.304Z,23.21
2018-07-03T17:01:19.546Z,23.96
2018-07-03T17:03:00.505Z,22.60
2018-07-03T17:04:42.452Z,22.36
2018-07-03T17:06:21.602Z,23.19
2018-07-03T17:08:00.835Z,23.12
2018-07-03T17:09:38.244Z,23.21
2018-07-03T17:11:18.180Z,23.12
2018-07-03T17:13:09.461Z,22.92
2018-07-03T17:14:45.013Z,24.53
2018-07-03T17:16:21.635Z,23.33
2018-07-03T17:18:34.627Z,24.51
2018-07-03T17:20:11.330Z,23.43
2018-07-03T17:21:48.219Z,23.36
2018-07-03T17:23:25.866Z,23.38
2018-07-03T17:25:01.893Z,24.60
2018-07-03T17:26:38.593Z,24.15
2018-07-03T17:28:14.959Z,23.45
2018-07-03T17:29:52.547Z,23.79
2018-07-03T17:31:30.202Z,23.87
2018-07-03T17:33:08.979Z,23.42
2018-07-03T17:34:47.326Z,23.80
2018-07-03T17:36:23.762Z,23.37
2018-07-03T17:38:02.661Z,23.96
2018-07-03T17:39:50.470Z,23.80
2018-07-03T17:41:36.491Z,23.90
2018-07-03T17:43:22.514Z,23.88
2018-07-03T17:45:40.297Z,25.14
2018-07-03T17:47:16.999Z,24.74
2018-07-03T17:48:57.282Z,23.01
2018-07-03T17:50:34.179Z,23.79
2018-07-03T17:52:10.614Z,23.44
2018-07-03T17:53:47.485Z,24.40
2018-07-03T17:55:24.709Z,23.79
2018-07-03T17:57:02.944Z,24.60
2018-07-03T17:58:45.276Z,24.28
2018-07-03T18:00:22.876Z,23.36
2018-07-03T18:02:02.609Z,24.77
2018-07-03T18:03:47.358Z,23.36
2018-07-03T18:05:27.449Z,24.87
2018-07-03T18:07:11.138Z,23.17
2018-07-03T18:08:55.457Z,24.09
2018-07-03T18:10:32.750Z,25.21
2018-07-03T18:12:11.310Z,25.43
2018-07-03T18:13:50.335Z,25.18
2018-07-03T18:15:28.792Z,25.20
2018-07-03T18:17:07.010Z,24.17
2018-07-03T18:18:45.399Z,24.26
2018-07-03T18:20:25.099Z,24.97
2018-07-03T18:22:07.466Z,24.78
2018-07-03T18:23:56.318Z,24.34
2018-07-03T18:25:33.334Z,24.65
2018-07-03T18:27:14.688Z,25.40
2018-07-03T18:28:54.781Z,25.63
2018-07-03T18:30:37.553Z,25.99
2018-07-03T18:32:21.481Z,25.60
2018-07-03T18:34:01.370Z,27.09
2018-07-03T18:35:41.907Z,25.27
2018-07-03T18:37:28.486Z,25.73
2018-07-03T18:39:11.971Z,25.08
2018-07-03T18:40:49.859Z,25.51
2018-07-03T18:42:28.090Z,26.29
2018-07-03T18:44:06.838Z,26.75
2018-07-03T18:45:45.495Z,25.86
2018-07-03T18:47:23.713Z,27.20
2018-07-03T18:49:00.716Z,27.91
2018-07-03T18:50:40.409Z,27.80
2018-07-03T18:52:18.211Z,27.25
2018-07-03T18:53:55.685Z,28.65
2018-07-03T18:55:33.515Z,29.38
2018-07-03T18:57:12.143Z,28.88
2018-07-03T18:58:50.453Z,29.79
2018-07-03T19:00:30.110Z,31.57
2018-07-03T19:02:08.793Z,31.98
2018-07-03T19:03:48.331Z,32.34
2018-07-03T19:05:24.592Z,33.54
2018-07-03T19:07:02.751Z,33.51
2018-07-03T19:08:41.737Z,34.50
2018-07-03T19:10:46.932Z,34.30
2018-07-03T19:12:27.239Z,35.24
2018-07-03T19:14:06.594Z,35.06
2018-07-03T19:15:47.092Z,34.40
2018-07-03T19:17:26.813Z,35.13
2018-07-03T19:19:05.936Z,33.48
2018-07-03T19:20:48.344Z,36.95
2018-07-03T19:22:32.409Z,37.26
2018-07-03T19:24:10.650Z,37.41
2018-07-03T19:25:51.186Z,37.87
2018-07-03T19:27:30.933Z,38.02
2018-07-03T19:29:09.747Z,37.11
2018-07-03T19:30:48.642Z,37.69
2018-07-03T19:32:29.705Z,38.41
2018-07-03T19:34:06.532Z,40.28
2018-07-03T19:35:43.796Z,40.28
2018-07-03T19:37:22.886Z,39.96
2018-07-03T19:38:59.944Z,39.51
2018-07-03T19:40:40.057Z,40.68
2018-07-03T19:42:16.898Z,41.90
2018-07-03T19:43:54.819Z,41.79
2018-07-03T19:45:32.512Z,41.96
2018-07-03T19:47:10.279Z,42.78
2018-07-03T19:48:47.520Z,43.11
2018-07-03T19:50:27.918Z,42.46
2018-07-03T19:52:05.206Z,41.60
2018-07-03T19:53:41.964Z,41.77
2018-07-03T19:55:18.776Z,42.22
2018-07-03T19:56:55.821Z,42.23
2018-07-03T19:58:31.256Z,43.05
2018-07-03T20:00:10.729Z,43.31
2018-07-03T20:01:48.394Z,43.50
2018-07-03T20:03:25.727Z,45.53
2018-07-03T20:05:02.677Z,45.76
2018-07-03T20:06:42.017Z,45.43
2018-07-03T20:08:20.984Z,46.16
2018-07-03T20:09:57.860Z,45.27
2018-07-03T20:11:34.074Z,44.43
2018-07-03T20:13:15.607Z,43.68
2018-07-03T20:14:53.950Z,43.97
2018-07-03T20:18:49.404Z,43.28
2018-07-03T20:20:26.831Z,43.44
2018-07-03T20:22:04.531Z,43.12
2018-07-03T20:23:41.113Z,42.75
2018-07-03T20:25:23.251Z,42.71
2018-07-03T20:26:59.536Z,43.94
2018-07-03T20:28:38.297Z,43.30
2018-07-03T20:30:17.255Z,44.04
2018-07-03T20:31:56.715Z,44.23
2018-07-03T20:33:36.721Z,45.43
2018-07-03T20:35:12.403Z,45.12
2018-07-03T20:36:49.997Z,45.61
2018-07-03T20:38:25.270Z,45.76
2018-07-03T20:40:02.055Z,45.34
2018-07-03T20:41:40.599Z,46.15
2018-07-03T20:43:18.989Z,45.61
2018-07-03T20:44:57.667Z,46.32
2018-07-03T20:46:33.993Z,46.20
2018-07-03T20:48:23.930Z,46.57
2018-07-03T20:50:05.421Z,46.48
2018-07-03T20:51:42.177Z,46.86
2018-07-03T20:53:17.719Z,46.92
2018-07-03T20:54:57.408Z,46.74
2018-07-03T20:56:35.277Z,47.44
2018-07-03T20:58:13.246Z,46.70
2018-07-03T20:59:53.340Z,46.64
2018-07-03T21:01:30.318Z,47.41
2018-07-03T21:03:13.583Z,47.03
2018-07-03T21:04:56.171Z,46.82
2018-07-03T21:06:37.446Z,46.91
2018-07-03T21:08:14.624Z,46.98
2018-07-03T21:09:55.409Z,46.64
2018-07-03T21:11:36.171Z,46.98
2018-07-03T21:13:13.527Z,47.86
2018-07-03T21:14:53.142Z,48.31
2018-07-03T21:16:29.970Z,49.16
2018-07-03T21:18:11.491Z,48.49
2018-07-03T21:19:48.536Z,48.53
2018-07-03T21:21:26.082Z,47.81
2018-07-03T21:23:04.210Z,47.80
2018-07-03T21:24:46.714Z,47.26
2018-07-03T21:26:26.285Z,47.58
2018-07-03T21:28:04.970Z,47.96
2018-07-03T21:29:42.423Z,47.30
2018-07-03T21:31:19.632Z,47.50
2018-07-03T21:33:02.959Z,47.98
2018-07-03T21:34:43.271Z,47.99
2018-07-03T21:36:27.510Z,48.27
2018-07-03T21:38:07.522Z,48.02
2018-07-03T21:39:51.664Z,48.32
2018-07-03T21:41:29.843Z,49.52
2018-07-03T21:43:16.584Z,49.67
2018-07-03T21:44:57.332Z,49.15
2018-07-03T21:46:34.696Z,49.36
2018-07-03T21:48:11.371Z,50.39
2018-07-03T21:49:52.313Z,50.64
2018-07-03T21:51:30.334Z,50.85
2018-07-03T21:53:17.656Z,50.17
2018-07-03T21:54:55.449Z,50.60
2018-07-03T21:56:33.760Z,50.46
2018-07-03T21:58:10.094Z,50.82
2018-07-03T21:59:48.206Z,50.51
2018-07-03T22:01:25.484Z,50.20
2018-07-03T22:03:05.292Z,49.88
2018-07-03T22:04:47.262Z,49.29
2018-07-03T22:06:22.778Z,49.20
2018-07-03T22:07:59.868Z,49.85
2018-07-03T22:09:38.937Z,49.26
2018-07-03T22:11:30.524Z,49.22
2018-07-03T22:13:13.938Z,48.64
2018-07-03T22:14:50.607Z,48.78
2018-07-03T22:16:28.898Z,49.20
2018-07-03T22:18:06.761Z,48.90
2018-07-03T22:19:43.441Z,48.90
2018-07-03T22:21:24.100Z,49.82
2018-07-03T22:23:04.943Z,49.19
2018-07-03T22:24:41.850Z,49.57
2018-07-03T22:26:20.772Z,50.44
2018-07-03T22:27:56.852Z,49.90
2018-07-03T22:29:33.590Z,49.86
2018-07-03T22:31:10.281Z,49.48
2018-07-03T22:32:47.043Z,48.93
2018-07-03T22:34:26.994Z,48.34
2018-07-03T22:36:02.836Z,48.88
2018-07-03T22:37:39.312Z,47.79
2018-07-03T22:39:16.351Z,49.80
2018-07-03T22:40:52.766Z,48.81
2018-07-03T22:42:29.678Z,50.22
2018-07-03T22:44:08.403Z,50.34
2018-07-03T22:45:46.157Z,49.91
2018-07-03T22:47:21.982Z,49.97
2018-07-03T22:48:58.663Z,49.42
2018-07-03T22:50:39.513Z,49.24
2018-07-03T22:52:15.846Z,49.42
2018-07-03T22:53:55.765Z,50.02
2018-07-03T22:55:35.727Z,49.90
2018-07-03T22:57:15.428Z,51.00
2018-07-03T22:58:52.727Z,50.07
2018-07-03T23:00:34.604Z,49.54
2018-07-03T23:02:09.625Z,48.99
2018-07-03T23:03:46.380Z,50.06
2018-07-03T23:05:24.341Z,50.22
2018-07-03T23:07:04.299Z,50.87
2018-07-03T23:08:40.538Z,50.72
2018-07-03T23:10:18.867Z,50.45
2018-07-03T23:12:04.580Z,50.97
2018-07-03T23:13:41.706Z,51.47
2018-07-03T23:15:20.546Z,51.32
2018-07-03T23:16:58.453Z,50.95
2018-07-03T23:18:37.134Z,51.34
2018-07-03T23:20:16.108Z,51.85
2018-07-03T23:21:53.567Z,50.71
2018-07-03T23:23:32.095Z,51.60
2018-07-03T23:25:10.527Z,52.04
2018-07-03T23:26:50.574Z,51.82
2018-07-03T23:28:43.241Z,52.44
2018-07-03T23:30:23.501Z,51.40
2018-07-03T23:32:03.692Z,49.41
2018-07-03T23:33:41.212Z,49.05
2018-07-03T23:35:18.000Z,49.62
2018-07-03T23:36:53.360Z,49.13
2018-07-03T23:38:29.861Z,48.42
2018-07-03T23:40:05.544Z,48.45
2018-07-03T23:41:41.290Z,48.84
2018-07-03T23:43:16.625Z,47.21
2018-07-03T23:44:54.830Z,47.16
2018-07-03T23:46:44.813Z,46.64
2018-07-03T23:48:31.047Z,46.63
2018-07-03T23:50:17.774Z,46.80
2018-07-03T23:52:04.498Z,46.92
2018-07-03T23:53:52.267Z,46.02
2018-07-03T23:55:39.342Z,46.30
2018-07-03T23:57:25.622Z,46.34
2018-07-03T23:59:12.231Z,46.12
